KNGP/NGP METAR and TAF weather

Enter ICAO airport designator
Station Type Date Time Source
KNGP METAR 2020/09/22 00:56 UTC NOAA

KNGP 220056Z 31021G29KT 10SM OVC013 23/21 A2983 RMK AO2 PK WND 31030/0001 SLP100 T2 SET T02330211 $


Station Type Date Time Source
KNGP Decoded METAR 2020/09/22 00:56 UTC NOAA

CORPUS CHRISTI NAVAL AIR STN, TX, United States (KNGP) 27-41N 097-17W
Sep 21, 2020 - 08:56 PM EDT / 2020.09.22 0056 UTC
Wind: from the NW (310 degrees) at 24 MPH (21 KT) gusting to 33 MPH (29 KT):0
Visibility: 10 mile(s):0
Sky conditions: overcast
Temperature: 73.9 F (23.3 C)
Dew Point: 70.0 F (21.1 C)
Relative Humidity: 87%
Pressure (altimeter): 29.83 in. Hg (1010 hPa)
ob: KNGP 220056Z 31021G29KT 10SM OVC013 23/21 A2983 RMK AO2 PK WND 31030/0001 SLP100 T2 SET T02330211
cycle: 1

Station Type Date Time Source
KNGP TAF 2020/09/21 23:57 UTC NOAA

TAF TAF KNGP 2123/2223 32020G29KT 9999 VCTS FEW008 OVC014CB 510005 QNH2979INS
TEMPO 2123/2201 32024G33KT 9000 -SHRA BR BKN008 OVC013CB
FM220100 32019G28KT 9999 VCSH FEW008 BKN015 OVC020 510005 QNH2977INS
TEMPO 2201/2206 29020G30KT 8000 -SHRA BR BKN008 OVC013
FM220700 29019G28KT 9999 VCSH SCT008 BKN012 OVC020 510005 QNH2980INS
TEMPO 2207/2212 9000 -SHRA BR BKN008 OVC012
FM221300 31018G27KT 9999 VCSH BKN013 BKN025 OVC040 510005 QNH2985INS
FM221700 32018G26KT 9999 SCT015 BKN025 BKN080 OVC200 510005 QNH2992INS
FM222100 32017G24KT 9999 FEW020 BKN030 BKN120 BKN250 510005 QNH2984INS AUTOMATED SENSOR METWATCH 2204 TIL 2211 T22/2211Z T34/2220Z FN00003

Example: see airport list